Time;durP1;ratioP1;P1;durP2;ratioP2;P2;SDS_P1;SDS_P2;PMS_P1;PMS_P2;Temp;Humidity;BMP_temperature;BMP_pressure;BME280_temperature;BME280_humidity;BME280_pressure;Samples;Min_cycle;Max_cycle;Signal;HPM_P1;HPM_P2
2022/03/18 00:00:06;;;;;;;;;18.00;14.25;;;;;6.60;63.74;103388.63;5074052;28;45342;-73
2022/03/18 00:02:32;;;;;;;;;17.50;17.50;;;;;6.52;64.26;103373.94;5079594;28;46348;-73
2022/03/18 00:04:58;;;;;;;;;17.75;17.50;;;;;6.59;63.47;103392.06;5073341;28;45699;-73
2022/03/18 00:07:23;;;;;;;;;11.75;11.50;;;;;6.57;64.03;103398.91;5071014;28;45442;-73
2022/03/18 00:09:49;;;;;;;;;18.25;15.00;;;;;6.36;63.57;103361.28;5076810;28;45442;-73
2022/03/18 00:12:15;;;;;;;;;19.75;15.25;;;;;6.53;63.29;103391.56;5071108;28;45351;-73
2022/03/18 00:14:41;;;;;;;;;13.75;12.50;;;;;6.26;63.87;103343.81;5079308;28;45437;-73
2022/03/18 00:17:08;;;;;;;;;13.25;13.00;;;;;6.42;63.36;103369.66;5070180;28;45377;-73
2022/03/18 00:19:35;;;;;;;;;14.75;14.00;;;;;6.33;63.86;103361.03;5080284;28;45409;-73
2022/03/18 00:22:01;;;;;;;;;16.75;14.75;;;;;6.45;63.79;103390.03;5079563;28;47124;-73
2022/03/18 00:24:33;;;;;;;;;20.00;16.75;;;;;6.34;63.55;103370.72;5072696;28;47044;-74
2022/03/18 00:27:03;;;;;;;;;20.00;15.75;;;;;6.15;63.66;103349.00;5080963;27;45343;-74
2022/03/18 00:29:30;;;;;;;;;13.75;10.75;;;;;6.23;63.99;103368.94;5072416;28;45448;-74
2022/03/18 00:31:56;;;;;;;;;15.00;12.25;;;;;6.27;63.18;103387.72;5079280;28;46308;-72
2022/03/18 00:34:21;;;;;;;;;15.25;11.75;;;;;6.17;63.66;103379.84;5079191;27;45443;-74
2022/03/18 00:36:47;;;;;;;;;8.00;7.50;;;;;6.05;63.74;103360.44;5074816;28;45288;-74
2022/03/18 00:39:12;;;;;;;;;12.00;11.50;;;;;6.25;63.22;103397.16;5069084;28;45234;-75
2022/03/18 00:41:38;;;;;;;;;15.00;11.00;;;;;6.24;63.57;103403.19;5071670;28;46144;-75
2022/03/18 00:44:04;;;;;;;;;12.50;11.50;;;;;6.24;63.55;103412.78;5073677;28;46008;-74
2022/03/18 00:46:30;;;;;;;;;9.50;9.50;;;;;6.14;63.39;103394.44;5073804;28;45261;-75
2022/03/18 00:52:02;;;;;;;;;15.50;12.00;;;;;6.08;63.79;103384.34;5056831;28;45496;-74
2022/03/18 00:54:28;;;;;;;;;12.00;11.25;;;;;6.11;63.71;103405.59;5068949;27;45590;-74
2022/03/18 00:56:53;;;;;;;;;8.50;8.50;;;;;6.03;63.53;103383.03;5078332;28;45353;-75
2022/03/18 00:59:18;;;;;;;;;8.75;7.25;;;;;5.78;64.27;103344.16;5074904;28;45646;-74
2022/03/18 01:01:44;;;;;;;;;16.50;12.00;;;;;5.44;63.50;103284.38;5078896;28;46215;-74
2022/03/18 01:04:09;;;;;;;;;16.00;11.25;;;;;6.05;63.71;103394.56;5074702;28;45264;-74
2022/03/18 01:06:35;;;;;;;;;13.00;11.50;;;;;6.00;64.03;103394.19;5067579;27;45458;-75
2022/03/18 01:09:05;;;;;;;;;13.00;10.25;;;;;5.91;64.59;103382.88;5074842;27;45381;-75
2022/03/18 01:11:31;;;;;;;;;12.75;12.00;;;;;5.91;63.46;103382.88;5068658;28;45423;-74
2022/03/18 01:13:57;;;;;;;;;17.00;13.25;;;;;5.81;64.19;103381.16;5077927;28;45177;-75
2022/03/18 01:16:22;;;;;;;;;12.75;12.50;;;;;5.86;64.51;103393.78;5069751;28;45241;-74
2022/03/18 01:18:48;;;;;;;;;11.00;9.25;;;;;5.79;64.81;103373.94;5079228;28;45300;-75
2022/03/18 01:21:13;;;;;;;;;16.25;15.50;;;;;5.67;65.19;103365.94;5070838;27;45708;-74
2022/03/18 01:23:39;;;;;;;;;18.00;13.25;;;;;5.79;65.44;103390.59;5080183;28;45373;-75
2022/03/18 01:26:05;;;;;;;;;14.25;13.75;;;;;5.63;65.00;103363.88;5067747;28;45280;-75
2022/03/18 01:28:30;;;;;;;;;24.50;16.75;;;;;5.55;64.65;103357.94;5074672;28;45415;-74
2022/03/18 01:30:56;;;;;;;;;13.00;13.00;;;;;5.49;65.05;103364.34;5072091;28;45537;-75
2022/03/18 01:33:22;;;;;;;;;13.75;12.25;;;;;5.45;65.22;103360.56;5078898;28;46468;-75
2022/03/18 01:35:47;;;;;;;;;13.75;13.75;;;;;5.71;65.36;103409.09;5073432;28;45359;-75
2022/03/18 01:38:12;;;;;;;;;20.75;16.50;;;;;5.47;65.96;103379.06;5079307;28;46002;-74
2022/03/18 01:40:38;;;;;;;;;14.00;14.00;;;;;5.52;66.19;103394.41;5074554;28;45577;-75
2022/03/18 01:43:09;;;;;;;;;13.50;13.50;;;;;5.50;66.05;103398.59;5078988;28;45299;-74
2022/03/18 01:45:34;;;;;;;;;15.75;13.50;;;;;5.20;66.43;103346.09;5066624;28;45379;-74
2022/03/18 01:48:00;;;;;;;;;15.25;12.50;;;;;5.51;66.10;103404.75;5077809;27;45245;-75
2022/03/18 01:50:25;;;;;;;;;12.25;11.75;;;;;5.26;66.08;103373.78;5077891;28;46134;-74
2022/03/18 01:52:51;;;;;;;;;16.00;13.00;;;;;5.51;67.03;103420.50;5078847;27;46114;-74
2022/03/18 01:55:17;;;;;;;;;18.00;14.75;;;;;5.49;66.52;103419.44;5078500;28;45239;-74
2022/03/18 01:57:44;;;;;;;;;13.75;11.00;;;;;5.35;66.68;103405.16;5077478;28;45323;-74
2022/03/18 02:00:10;;;;;;;;;19.25;14.00;;;;;5.44;66.35;103419.06;5069533;28;45478;-74
2022/03/18 02:02:36;;;;;;;;;15.75;14.00;;;;;5.41;66.84;103426.66;5068748;28;45641;-74
2022/03/18 02:05:02;;;;;;;;;20.50;17.00;;;;;5.39;66.88;103426.50;5071590;27;46389;-74
2022/03/18 02:07:28;;;;;;;;;15.75;13.75;;;;;5.28;66.68;103411.53;5070020;28;45295;-74
2022/03/18 02:09:53;;;;;;;;;17.25;13.50;;;;;5.30;67.53;103437.91;5074755;28;45297;-74
2022/03/18 02:12:18;;;;;;;;;17.50;15.25;;;;;5.14;66.89;103417.28;5069944;28;46042;-74
2022/03/18 02:14:48;;;;;;;;;16.50;15.50;;;;;5.26;67.02;103434.09;5076699;28;45420;-74
2022/03/18 02:17:16;;;;;;;;;17.25;14.25;;;;;5.23;67.80;103430.28;5070563;28;45513;-74
2022/03/18 02:19:43;;;;;;;;;17.25;15.00;;;;;4.97;67.35;103380.81;5078069;28;45452;-74
2022/03/18 02:22:14;;;;;;;;;14.00;14.00;;;;;5.11;66.33;103417.94;5069916;27;46052;-74
2022/03/18 02:24:41;;;;;;;;;17.75;17.25;;;;;5.15;67.43;103429.59;5078017;28;45453;-74
2022/03/18 02:27:07;;;;;;;;;20.75;17.00;;;;;4.98;67.97;103401.88;5070907;28;45232;-74
2022/03/18 02:29:33;;;;;;;;;21.75;16.25;;;;;4.86;67.64;103383.38;5077543;28;45558;-74
2022/03/18 02:32:00;;;;;;;;;20.75;14.00;;;;;5.09;67.19;103422.09;5071326;28;46104;-74
2022/03/18 02:34:26;;;;;;;;;21.00;17.25;;;;;5.07;67.37;103418.47;5078020;28;45473;-74
2022/03/18 02:36:52;;;;;;;;;24.50;21.25;;;;;4.74;67.15;103356.09;5072415;27;45537;-74
2022/03/18 02:39:17;;;;;;;;;22.50;17.75;;;;;4.96;67.35;103402.53;5077941;27;45705;-74
2022/03/18 02:41:43;;;;;;;;;26.75;21.25;;;;;4.92;68.24;103399.63;5073290;28;45951;-74
2022/03/18 02:44:08;;;;;;;;;24.00;20.50;;;;;5.00;68.07;103412.53;5073801;28;45324;-74
2022/03/18 02:46:34;;;;;;;;;25.50;20.75;;;;;4.98;68.46;103417.63;5073881;28;45316;-74
2022/03/18 02:49:01;;;;;;;;;19.50;17.50;;;;;4.89;67.97;103395.84;5078159;27;45418;-74
2022/03/18 02:51:27;;;;;;;;;24.75;21.50;;;;;4.94;68.41;103424.28;5079970;27;46371;-74
2022/03/18 02:53:53;;;;;;;;;33.00;24.75;;;;;4.75;68.36;103391.97;5076622;27;45450;-75
2022/03/18 02:56:19;;;;;;;;;27.25;24.25;;;;;4.89;69.05;103427.28;5075064;27;45268;-75
2022/03/18 02:58:44;;;;;;;;;26.25;20.00;;;;;4.48;68.69;103357.31;5074852;27;45399;-75
2022/03/18 03:01:09;;;;;;;;;18.75;15.50;;;;;4.85;69.24;103428.72;5070361;27;46076;-74
2022/03/18 03:03:35;;;;;;;;;27.50;24.50;;;;;4.63;68.69;103385.66;5075926;28;45299;-74
2022/03/18 03:08:44;;;;;;;;;25.25;21.00;;;;;4.48;68.43;103366.84;5067616;28;45311;-74
2022/03/18 03:11:09;;;;;;;;;24.50;20.50;;;;;4.80;69.12;103426.47;5070764;28;45734;-74
2022/03/18 03:13:35;;;;;;;;;24.50;21.25;;;;;4.78;69.44;103423.69;5080759;28;45264;-74
2022/03/18 03:16:02;;;;;;;;;28.00;21.25;;;;;4.68;69.04;103418.44;5072216;27;45830;-74
2022/03/18 03:18:28;;;;;;;;;33.00;26.50;;;;;4.74;67.82;103434.69;5081221;28;45531;-75
2022/03/18 03:20:54;;;;;;;;;28.25;25.00;;;;;4.64;68.78;103429.41;5072880;28;45442;-75
2022/03/18 03:23:21;;;;;;;;;30.75;22.50;;;;;4.70;68.93;103444.00;5081177;28;45438;-74
2022/03/18 03:25:48;;;;;;;;;35.50;23.75;;;;;4.69;67.82;103447.38;5074387;27;45388;-75
2022/03/18 03:28:14;;;;;;;;;24.25;20.25;;;;;4.67;67.40;103448.00;5080355;27;47232;-75
2022/03/18 03:30:39;;;;;;;;;31.25;27.50;;;;;4.49;68.01;103421.06;5074896;27;45669;-74
2022/03/18 03:33:04;;;;;;;;;27.75;26.75;;;;;4.64;68.24;103447.72;5080622;28;45287;-75
2022/03/18 03:35:30;;;;;;;;;36.50;26.75;;;;;4.36;67.75;103403.31;5080696;27;45524;-75
2022/03/18 03:37:55;;;;;;;;;32.50;27.50;;;;;4.29;67.68;103379.97;5080822;27;45619;-75
2022/03/18 03:40:21;;;;;;;;;29.00;24.75;;;;;4.74;67.67;103457.38;5072832;28;48394;-74
2022/03/18 03:42:46;;;;;;;;;30.50;26.25;;;;;4.77;69.61;103448.06;5080767;27;45366;-75
2022/03/18 03:45:13;;;;;;;;;30.25;23.75;;;;;4.77;69.50;103450.69;5072061;28;45336;-75
2022/03/18 03:47:39;;;;;;;;;35.50;28.25;;;;;4.78;69.78;103449.91;5080836;27;45365;-75
2022/03/18 03:50:06;;;;;;;;;29.25;24.25;;;;;4.80;67.79;103452.66;5080168;28;45451;-75
2022/03/18 03:52:32;;;;;;;;;31.00;28.75;;;;;4.66;69.02;103420.91;5081418;27;45235;-75
2022/03/18 03:54:58;;;;;;;;;24.25;23.75;;;;;4.76;68.89;103443.63;5071238;27;45186;-75
2022/03/18 03:57:23;;;;;;;;;28.50;24.25;;;;;4.68;69.75;103419.34;5081101;27;45356;-74
2022/03/18 03:59:48;;;;;;;;;33.50;29.50;;;;;4.87;69.92;103456.00;5074925;28;46154;-75
2022/03/18 04:02:14;;;;;;;;;28.25;26.75;;;;;4.59;68.73;103405.38;5068994;28;45225;-74
2022/03/18 04:04:39;;;;;;;;;39.25;29.75;;;;;4.74;69.15;103424.22;5075625;28;45435;-73
2022/03/18 04:07:05;;;;;;;;;61.25;48.00;;;;;4.96;69.15;103466.38;5079541;28;45429;-74
2022/03/18 04:09:30;;;;;;;;;76.33;55.33;;;;;4.39;68.60;103359.06;5076560;27;45232;-75
2022/03/18 04:11:56;;;;;;;;;92.67;68.33;;;;;4.98;68.36;103463.88;5071055;27;45320;-74
2022/03/18 04:14:22;;;;;;;;;65.75;46.25;;;;;4.96;69.33;103471.63;5080430;28;45422;-75
2022/03/18 04:16:48;;;;;;;;;45.50;38.00;;;;;4.96;68.76;103471.63;5071588;27;45478;-75
2022/03/18 04:19:14;;;;;;;;;86.33;59.00;;;;;4.88;69.22;103463.06;5071510;28;47105;-74
2022/03/18 04:21:41;;;;;;;;;193.25;162.25;;;;;4.67;69.33;103434.91;5072674;28;45200;-74
2022/03/18 04:24:06;;;;;;;;;54.25;41.50;;;;;4.89;67.50;103471.84;5085021;27;45395;-74
2022/03/18 04:26:32;;;;;;;;;57.00;43.33;;;;;4.87;68.50;103478.63;5073607;27;45191;-74
2022/03/18 04:28:57;;;;;;;;;79.67;54.67;;;;;4.59;67.65;103435.91;5080011;28;45485;-74
2022/03/18 04:31:23;;;;;;;;;58.00;47.00;;;;;4.68;67.26;103442.91;5075580;27;45288;-75
2022/03/18 04:33:48;;;;;;;;;44.75;37.00;;;;;4.82;67.67;103467.75;5073165;28;45589;-74
2022/03/18 04:36:13;;;;;;;;;76.67;56.67;;;;;4.82;68.18;103475.63;5079958;28;46367;-74
2022/03/18 04:38:39;;;;;;;;;44.50;36.00;;;;;4.81;68.89;103467.59;5074635;28;46811;-74
2022/03/18 04:41:04;;;;;;;;;50.75;40.50;;;;;4.77;68.11;103466.41;5072281;27;45493;-74
2022/03/18 04:43:30;;;;;;;;;53.25;42.25;;;;;4.77;67.64;103466.41;5079849;27;45400;-74
2022/03/18 04:45:55;;;;;;;;;62.00;49.75;;;;;5.00;68.01;103497.31;5071217;27;45292;-74
2022/03/18 04:48:21;;;;;;;;;65.33;50.00;;;;;5.01;67.89;103498.22;5079624;27;46227;-74
2022/03/18 04:50:46;;;;;;;;;30.50;27.75;;;;;4.86;67.86;103469.84;5080255;27;45311;-75
2022/03/18 04:53:12;;;;;;;;;39.50;30.00;;;;;4.92;67.49;103486.13;5080021;27;45433;-75
2022/03/18 04:55:37;;;;;;;;;90.00;65.67;;;;;4.90;67.41;103472.00;5071130;28;45563;-74
2022/03/18 04:58:03;;;;;;;;;89.00;74.75;;;;;5.05;67.59;103503.91;5079264;27;46206;-74
2022/03/18 05:00:28;;;;;;;;;94.67;75.67;;;;;5.05;67.94;103506.53;5070222;28;45955;-74
2022/03/18 05:02:55;;;;;;;;;48.50;38.00;;;;;5.08;67.55;103506.78;5079932;27;45409;-74
2022/03/18 05:05:21;;;;;;;;;68.00;55.67;;;;;4.54;67.15;103411.00;5069283;28;46848;-75
2022/03/18 05:07:51;;;;;;;;;85.00;62.33;;;;;5.09;67.27;103508.63;5071383;28;47369;-75
2022/03/18 05:10:18;;;;;;;;;38.25;35.25;;;;;5.10;67.05;103514.81;5075428;28;45379;-75
2022/03/18 05:12:45;;;;;;;;;42.75;34.25;;;;;5.10;66.83;103515.72;5073778;28;45304;-74
2022/03/18 05:15:10;;;;;;;;;59.33;49.67;;;;;5.10;67.19;103518.34;5076599;27;45542;-74
2022/03/18 05:17:37;;;;;;;;;99.67;87.00;;;;;4.86;66.63;103474.19;5074617;28;45419;-76
2022/03/18 05:20:04;;;;;;;;;47.50;42.25;;;;;4.96;66.46;103486.41;5069769;28;46030;-75
2022/03/18 05:22:30;;;;;;;;;35.75;32.75;;;;;5.00;66.48;103499.94;5074393;28;45377;-76
2022/03/18 05:24:57;;;;;;;;;52.00;41.50;;;;;5.14;67.06;103527.41;5077746;28;45372;-76
2022/03/18 05:27:23;;;;;;;;;43.75;39.50;;;;;5.09;66.27;103507.69;5074235;28;45756;-76
2022/03/18 05:29:48;;;;;;;;;85.33;65.33;;;;;5.00;66.07;103494.69;5078701;28;45277;-74
2022/03/18 05:32:14;;;;;;;;;26.50;25.00;;;;;4.94;66.41;103495.06;5079843;27;45652;-76
2022/03/18 05:34:39;;;;;;;;;38.25;34.00;;;;;4.98;65.91;103497.94;5077530;28;45796;-76
2022/03/18 05:37:05;;;;;;;;;29.00;26.00;;;;;4.63;66.05;103428.47;5079547;28;45316;-75
2022/03/18 05:39:32;;;;;;;;;36.00;34.50;;;;;5.21;65.73;103524.56;5072422;27;45304;-76
2022/03/18 05:41:57;;;;;;;;;39.50;36.00;;;;;5.22;65.71;103528.09;5077806;28;45263;-75
2022/03/18 05:44:23;;;;;;;;;27.00;25.25;;;;;5.19;65.60;103526.13;5073336;27;45557;-76
2022/03/18 05:46:49;;;;;;;;;36.50;30.50;;;;;5.16;65.33;103523.22;5075979;28;45836;-76
2022/03/18 05:49:14;;;;;;;;;38.00;32.00;;;;;5.24;65.85;103532.69;5078896;27;45505;-76
2022/03/18 05:51:40;;;;;;;;;34.25;31.50;;;;;4.79;65.78;103443.91;5079289;27;45296;-76
2022/03/18 05:54:06;;;;;;;;;24.75;24.75;;;;;5.24;65.21;103522.22;5074145;27;45455;-75
2022/03/18 05:59:16;;;;;;;;;28.00;24.25;;;;;5.29;65.11;103536.66;5073660;28;44840;-75
2022/03/18 06:01:43;;;;;;;;;26.25;24.25;;;;;5.38;64.98;103549.69;5066902;28;45352;-75
2022/03/18 06:04:10;;;;;;;;;32.50;29.75;;;;;5.38;64.94;103541.81;5076287;28;45379;-75
2022/03/18 06:06:37;;;;;;;;;41.25;36.25;;;;;5.27;65.10;103525.09;5067251;28;46250;-75
2022/03/18 06:11:51;;;;;;;;;72.33;57.00;;;;;5.22;63.81;103518.53;5068619;28;45565;-75
2022/03/18 06:14:22;;;;;;;;;107.00;97.25;;;;;5.03;64.30;103488.81;5074612;28;45453;-73
2022/03/18 06:16:50;;;;;;;;;36.75;32.00;;;;;5.34;64.31;103543.22;5079105;27;46204;-76
2022/03/18 06:19:19;;;;;;;;;40.50;30.25;;;;;5.30;64.85;103542.81;5078569;27;45481;-75
2022/03/18 06:21:45;;;;;;;;;29.50;22.75;;;;;5.15;64.37;103506.56;5069882;28;45426;-74
2022/03/18 06:24:11;;;;;;;;;51.00;42.25;;;;;5.18;64.29;103511.16;5078559;28;45225;-76
2022/03/18 06:26:37;;;;;;;;;26.50;26.00;;;;;5.34;63.68;103544.91;5071700;27;45309;-75
2022/03/18 06:29:04;;;;;;;;;42.75;31.50;;;;;5.32;64.20;103538.59;5077598;28;45371;-78
2022/03/18 06:31:29;;;;;;;;;36.25;31.50;;;;;5.33;63.83;103532.59;5073140;27;45560;-74
2022/03/18 06:33:55;;;;;;;;;31.25;26.75;;;;;5.45;64.70;103548.50;5080080;28;45295;-73
2022/03/18 06:36:20;;;;;;;;;30.75;27.50;;;;;5.46;63.12;103548.66;5076179;27;45534;-73
2022/03/18 06:38:45;;;;;;;;;31.00;27.75;;;;;5.26;64.43;103503.97;5082815;27;45304;-74
2022/03/18 06:41:11;;;;;;;;;25.50;24.25;;;;;5.35;64.52;103513.59;5073834;28;45419;-72
2022/03/18 06:43:36;;;;;;;;;34.50;30.50;;;;;5.41;63.80;103520.19;5081542;27;45659;-74
2022/03/18 06:46:02;;;;;;;;;56.67;45.00;;;;;5.29;63.84;103513.06;5073093;27;45309;-73
2022/03/18 06:48:28;;;;;;;;;37.75;27.00;;;;;5.23;63.67;103496.75;5081213;27;45345;-73
2022/03/18 06:50:53;;;;;;;;;38.25;35.25;;;;;5.53;63.89;103550.13;5082168;28;45508;-73
2022/03/18 06:53:19;;;;;;;;;34.75;33.75;;;;;5.55;63.56;103554.72;5081660;27;45475;-73
2022/03/18 06:55:44;;;;;;;;;37.00;33.50;;;;;5.53;63.62;103548.41;5072922;27;45352;-73
2022/03/18 06:58:10;;;;;;;;;33.25;31.00;;;;;5.42;63.86;103530.78;5081471;27;45386;-74
2022/03/18 07:00:36;;;;;;;;;33.50;29.25;;;;;5.54;63.27;103560.72;5070785;27;45283;-73
2022/03/18 07:03:01;;;;;;;;;32.75;29.75;;;;;5.41;63.60;103528.97;5073292;28;45705;-73
2022/03/18 07:05:27;;;;;;;;;73.33;58.67;;;;;5.54;63.20;103558.09;5074773;28;46138;-73
2022/03/18 07:07:53;;;;;;;;;36.00;32.50;;;;;5.57;63.45;103549.59;5073350;28;45860;-73
2022/03/18 07:10:18;;;;;;;;;21.50;20.00;;;;;5.55;63.71;103541.59;5075828;28;45335;-73
2022/03/18 07:12:44;;;;;;;;;30.00;26.00;;;;;5.48;63.06;103526.06;5075584;28;45532;-73
2022/03/18 07:15:09;;;;;;;;;26.50;26.50;;;;;5.68;63.25;103563.66;5094103;27;47179;-73
2022/03/18 07:20:19;;;;;;;;;24.75;23.25;;;;;5.81;62.44;103536.00;5077323;28;45292;-73
2022/03/18 07:22:44;;;;;;;;;32.50;24.50;;;;;6.09;63.02;103569.06;5076344;28;46127;-73
2022/03/18 07:25:10;;;;;;;;;24.50;22.00;;;;;6.00;62.72;103521.91;5079157;28;45430;-73
2022/03/18 07:27:36;;;;;;;;;23.25;20.00;;;;;6.10;62.50;103520.97;5077947;28;45229;-73
2022/03/18 07:30:03;;;;;;;;;27.25;19.50;;;;;6.29;61.68;103550.66;5079174;28;45710;-74
2022/03/18 07:32:28;;;;;;;;;25.75;24.25;;;;;6.37;61.10;103538.19;5075888;28;46131;-74
2022/03/18 07:34:54;;;;;;;;;22.75;21.00;;;;;6.48;61.92;103540.03;5084355;27;48292;-74
2022/03/18 07:37:19;;;;;;;;;25.00;24.00;;;;;6.45;61.67;103506.53;5075929;28;45798;-74
2022/03/18 07:39:44;;;;;;;;;28.25;25.50;;;;;6.72;60.94;103534.22;5072464;28;45994;-73
2022/03/18 07:42:10;;;;;;;;;32.25;25.00;;;;;6.67;61.15;103510.97;5081045;28;45532;-74
2022/03/18 07:44:36;;;;;;;;;29.75;24.00;;;;;7.02;60.15;103561.22;5073319;27;45360;-73
2022/03/18 07:47:05;;;;;;;;;27.25;25.75;;;;;6.77;60.64;103489.91;5079256;28;45318;-74
2022/03/18 07:49:30;;;;;;;;;31.50;23.50;;;;;7.04;60.89;103514.94;5078885;27;45354;-74
2022/03/18 07:51:56;;;;;;;;;25.00;22.00;;;;;7.08;59.60;103513.47;5078664;28;47563;-73
2022/03/18 07:54:21;;;;;;;;;23.50;22.00;;;;;7.40;58.98;103564.38;5076218;27;45863;-74
2022/03/18 07:56:47;;;;;;;;;27.50;26.00;;;;;7.51;57.88;103552.09;5076689;27;45340;-74
2022/03/18 07:59:12;;;;;;;;;21.00;18.25;;;;;7.69;58.04;103568.47;5075736;27;45336;-74
2022/03/18 08:01:39;;;;;;;;;29.50;23.75;;;;;7.67;58.84;103538.44;5079702;28;45358;-74
2022/03/18 08:04:05;;;;;;;;;21.75;18.25;;;;;8.01;57.81;103564.84;5075951;27;45423;-74
2022/03/18 08:06:30;;;;;;;;;27.00;22.25;;;;;8.17;58.88;103569.59;5069509;28;45265;-73
2022/03/18 08:08:55;;;;;;;;;23.25;21.25;;;;;8.30;57.75;103573.31;5079006;28;45298;-74
2022/03/18 08:11:21;;;;;;;;;21.25;21.00;;;;;8.15;58.39;103519.44;5070986;27;45504;-74
2022/03/18 08:13:49;;;;;;;;;21.50;21.00;;;;;8.45;57.71;103541.09;5079992;28;46255;-73
2022/03/18 08:16:15;;;;;;;;;26.50;21.50;;;;;8.71;57.23;103561.53;5071721;27;45221;-74
2022/03/18 08:18:41;;;;;;;;;25.25;22.75;;;;;8.86;56.10;103567.97;5080198;28;45476;-73
2022/03/18 08:21:06;;;;;;;;;32.25;23.00;;;;;8.98;55.17;103580.25;5072740;28;45254;-75
2022/03/18 08:23:33;;;;;;;;;25.25;23.00;;;;;8.89;53.90;103552.38;5080067;28;45524;-74
2022/03/18 08:25:59;;;;;;;;;23.00;21.50;;;;;8.93;54.70;103538.63;5074097;27;45460;-73
2022/03/18 08:28:24;;;;;;;;;24.25;18.75;;;;;9.33;55.59;103581.19;5077095;28;45390;-75
2022/03/18 08:30:49;;;;;;;;;19.50;18.50;;;;;9.12;53.15;103540.91;5073676;28;45810;-73
2022/03/18 08:33:15;;;;;;;;;28.00;21.25;;;;;9.41;53.78;103561.53;5077020;28;48272;-74
2022/03/18 08:35:41;;;;;;;;;20.00;18.25;;;;;9.71;54.44;103590.97;5071537;28;45404;-74
2022/03/18 08:38:08;;;;;;;;;19.75;19.00;;;;;9.70;53.90;103560.09;5078795;28;45310;-74
2022/03/18 08:40:35;;;;;;;;;25.25;22.00;;;;;9.99;54.23;103587.69;5071339;27;45254;-73
2022/03/18 08:43:06;;;;;;;;;24.00;22.50;;;;;10.11;52.96;103585.94;5079517;27;45998;-74
2022/03/18 08:45:33;;;;;;;;;21.00;20.50;;;;;10.06;50.91;103556.53;5070955;27;45322;-74
2022/03/18 08:47:59;;;;;;;;;27.00;21.00;;;;;9.86;53.65;103504.94;5078800;27;45382;-73
2022/03/18 08:50:25;;;;;;;;;22.00;19.00;;;;;10.28;52.97;103577.50;5077942;28;45433;-73
2022/03/18 08:52:53;;;;;;;;;25.50;20.75;;;;;10.25;53.67;103573.66;5079585;28;45609;-72
2022/03/18 08:55:19;;;;;;;;;20.25;18.00;;;;;10.18;51.52;103563.50;5090872;27;45292;-73
2022/03/18 08:57:45;;;;;;;;;19.25;15.50;;;;;10.18;51.19;103567.03;5079550;27;45560;-73
2022/03/18 09:00:14;;;;;;;;;23.25;19.25;;;;;10.17;50.79;103551.09;5071980;28;45339;-72
2022/03/18 09:02:40;;;;;;;;;18.75;18.00;;;;;10.33;51.50;103584.81;5070437;28;46000;-73
2022/03/18 09:05:07;;;;;;;;;15.25;12.75;;;;;10.18;50.28;103540.63;5072580;28;45284;-73
2022/03/18 09:07:33;;;;;;;;;17.75;17.25;;;;;10.29;50.39;103538.75;5070714;28;45370;-74
2022/03/18 09:09:59;;;;;;;;;20.75;18.25;;;;;10.43;49.08;103556.50;5075561;28;45371;-73
2022/03/18 09:12:24;;;;;;;;;22.00;17.00;;;;;10.61;47.45;103562.13;5070605;28;45347;-73
2022/03/18 09:14:50;;;;;;;;;17.25;15.25;;;;;10.72;49.61;103539.03;5083215;27;45359;-73
2022/03/18 09:17:15;;;;;;;;;19.50;18.25;;;;;10.80;48.96;103535.19;5070469;28;45386;-73
2022/03/18 09:19:41;;;;;;;;;13.00;11.00;;;;;11.16;46.56;103555.25;5079041;28;45316;-74
2022/03/18 09:22:07;;;;;;;;;20.25;16.00;;;;;11.32;44.92;103543.94;5078841;28;47934;-73
2022/03/18 09:24:34;;;;;;;;;16.00;13.75;;;;;11.71;47.27;103576.50;5078977;27;45280;-74
2022/03/18 09:26:59;;;;;;;;;22.50;20.50;;;;;12.01;47.37;103561.63;5072273;27;45192;-74
2022/03/18 09:29:25;;;;;;;;;23.00;19.75;;;;;12.20;43.94;103569.00;5083633;27;46350;-73
2022/03/18 09:31:52;;;;;;;;;15.50;14.50;;;;;12.50;43.09;103577.03;5078999;28;47880;-74
2022/03/18 09:34:22;;;;;;;;;13.00;13.00;;;;;12.64;46.04;103585.84;5071711;28;45366;-74
2022/03/18 09:36:48;;;;;;;;;23.00;18.50;;;;;12.60;45.33;103554.59;5074727;27;45431;-73
2022/03/18 09:39:14;;;;;;;;;16.50;13.00;;;;;12.79;42.51;103577.88;5075028;28;45414;-74
2022/03/18 09:41:39;;;;;;;;;16.50;16.00;;;;;12.79;42.43;103575.22;5074262;28;45414;-74
2022/03/18 09:44:05;;;;;;;;;18.50;15.25;;;;;12.56;43.36;103520.78;5076399;27;44910;-73
2022/03/18 09:46:32;;;;;;;;;17.00;13.75;;;;;12.90;43.75;103561.75;5071981;28;45692;-74
2022/03/18 09:48:59;;;;;;;;;13.50;12.50;;;;;13.05;42.96;103577.69;5078350;28;45317;-74
2022/03/18 09:51:25;;;;;;;;;11.25;10.25;;;;;13.07;42.72;103573.34;5079373;27;45539;-74
2022/03/18 09:53:51;;;;;;;;;12.75;12.25;;;;;13.06;41.40;103563.56;5076974;28;45251;-74
2022/03/18 09:56:16;;;;;;;;;12.50;11.00;;;;;13.03;41.46;103534.19;5074733;28;45377;-73
2022/03/18 09:58:41;;;;;;;;;9.50;8.25;;;;;13.25;42.24;103549.63;5075241;28;47361;-74
2022/03/18 10:01:07;;;;;;;;;13.25;11.25;;;;;13.56;40.38;103567.34;5068598;27;45406;-74
2022/03/18 10:03:40;;;;;;;;;11.50;10.50;;;;;13.83;40.45;103568.88;5073946;28;45248;-74
2022/03/18 10:06:10;;;;;;;;;7.25;7.25;;;;;14.15;38.98;103575.06;5068871;27;45344;-74
2022/03/18 10:08:35;;;;;;;;;13.50;11.00;;;;;14.42;39.48;103569.38;5073392;28;46382;-74
2022/03/18 10:11:15;;;;;;;;;7.33;7.33;;;;;14.60;39.34;103549.09;5069255;28;46727;-74
2022/03/18 10:14:14;;;;;;;;;10.50;8.25;;;;;14.82;39.75;103550.19;5081356;27;45312;-74
2022/03/18 10:16:43;;;;;;;;;9.00;7.00;;;;;15.01;35.83;103544.94;5068608;28;45463;-74
2022/03/18 10:19:13;;;;;;;;;10.67;8.00;;;;;15.17;36.70;103534.22;5077979;28;45584;-74
2022/03/18 10:21:59;;;;;;;;;7.33;7.33;;;;;15.49;34.58;103566.88;5073566;28;46138;-75
2022/03/18 10:24:27;;;;;;;;;6.33;5.33;;;;;15.63;32.63;103559.53;5076678;28;45178;-74
2022/03/18 10:27:12;;;;;;;;;12.33;12.33;;;;;15.75;31.07;103561.91;5072353;27;45295;-74
2022/03/18 10:29:41;;;;;;;;;8.33;8.00;;;;;15.99;33.47;103564.78;5077925;28;45461;-73
2022/03/18 10:32:08;;;;;;;;;12.00;9.33;;;;;15.88;31.63;103545.66;5077694;28;46290;-76
2022/03/18 10:37:21;;;;;;;;;11.00;8.00;;;;;16.07;29.59;103539.38;5075163;28;45284;-75
2022/03/18 10:39:51;;;;;;;;;10.33;10.00;;;;;16.10;30.18;103553.78;5069749;27;45512;-75
2022/03/18 10:42:18;;;;;;;;;10.33;9.00;;;;;16.18;32.52;103521.19;5078458;28;45294;-75
2022/03/18 10:44:52;;;;;;;;;11.00;9.00;;;;;16.43;33.25;103517.84;5069779;27;45335;-75
2022/03/18 10:47:32;;;;;;;;;10.67;9.33;;;;;16.63;30.36;103519.63;5078599;28;45319;-75
2022/03/18 10:50:00;;;;;;;;;12.67;7.67;;;;;16.32;26.52;103536.97;5077665;27;45453;-74
2022/03/18 10:52:28;;;;;;;;;8.33;7.33;;;;;16.32;28.91;103533.38;5078739;28;45440;-75
2022/03/18 10:54:54;;;;;;;;;5.00;3.67;;;;;16.50;30.01;103538.66;5073283;27;45339;-75
2022/03/18 10:57:19;;;;;;;;;9.67;8.00;;;;;16.45;26.70;103537.53;5078510;27;45429;-76
2022/03/18 10:59:44;;;;;;;;;8.67;7.00;;;;;16.68;26.60;103541.19;5073053;28;45312;-75
2022/03/18 11:02:15;;;;;;;;;4.67;4.67;;;;;16.39;26.08;103495.47;5065815;27;46527;-75
2022/03/18 11:04:41;;;;;;;;;10.67;8.67;;;;;16.62;28.66;103533.81;5073556;28;45448;-75
2022/03/18 11:12:41;;;;;;;;;10.67;9.00;;;;;17.14;29.22;103530.72;5070314;28;45317;-75
2022/03/18 11:15:07;;;;;;;;;10.33;8.00;;;;;17.22;26.02;103533.69;5073983;27;45526;-75
2022/03/18 11:17:33;;;;;;;;;9.00;5.33;;;;;17.14;27.00;103524.44;5070346;28;45357;-75
2022/03/18 11:20:01;;;;;;;;;9.00;9.00;;;;;17.37;27.91;103520.03;5069314;28;46054;-75
2022/03/18 11:22:27;;;;;;;;;7.67;7.67;;;;;17.50;26.38;103494.69;5082069;27;45264;-75
2022/03/18 11:24:56;;;;;;;;;7.33;7.33;;;;;17.63;26.93;103515.72;5079507;28;45344;-75
2022/03/18 11:27:21;;;;;;;;;11.67;9.00;;;;;17.63;25.94;103513.94;5074553;28;45553;-75
2022/03/18 11:29:46;;;;;;;;;7.33;7.33;;;;;17.58;25.36;103498.56;5080818;27;45271;-74
2022/03/18 11:32:12;;;;;;;;;11.33;7.33;;;;;17.93;27.03;103510.66;5075807;27;46275;-74
2022/03/18 11:34:52;;;;;;;;;9.00;6.67;;;;;17.74;24.99;103502.75;5081425;28;45393;-73